Time;durP1;ratioP1;P1;durP2;ratioP2;P2;SDS_P1;SDS_P2;PMS_P1;PMS_P2;Temp;Humidity;BMP_temperature;BMP_pressure;BME280_temperature;BME280_humidity;BME280_pressure;Samples;Min_cycle;Max_cycle;Signal;HPM_P1;HPM_P2
2023/08/24 00:00:23;;;;;;;12.50;5.32;;;;;;;;;;5052322;28;20107;-67
2023/08/24 00:02:49;;;;;;;10.77;5.13;;;;;;;;;;5052689;28;20063;-67
2023/08/24 00:05:15;;;;;;;10.65;5.00;;;;;;;;;;5051536;28;20044;-67
2023/08/24 00:07:41;;;;;;;12.52;5.40;;;;;;;;;;5052150;28;20154;-67
2023/08/24 00:10:07;;;;;;;9.68;5.68;;;;;;;;;;5034679;28;20051;-67
2023/08/24 00:12:33;;;;;;;14.70;5.70;;;;;;;;;;5050924;28;20029;-66
2023/08/24 00:14:59;;;;;;;14.38;5.65;;;;;;;;;;5034521;28;20083;-67
2023/08/24 00:17:25;;;;;;;11.15;6.20;;;;;;;;;;5034223;28;20136;-67
2023/08/24 00:19:50;;;;;;;17.88;6.20;;;;;;;;;;5051730;28;21036;-67
2023/08/24 00:22:16;;;;;;;13.27;5.68;;;;;;;;;;5035326;28;20033;-67
2023/08/24 00:24:42;;;;;;;9.65;5.75;;;;;;;;;;5052694;28;20044;-67
2023/08/24 00:27:07;;;;;;;15.70;5.93;;;;;;;;;;5052174;28;20091;-67
2023/08/24 00:29:33;;;;;;;10.25;6.28;;;;;;;;;;5052445;28;20043;-67
2023/08/24 00:31:59;;;;;;;11.80;6.90;;;;;;;;;;5052018;28;20044;-67
2023/08/24 00:34:26;;;;;;;8.23;6.32;;;;;;;;;;5033786;28;20041;-67
2023/08/24 00:36:52;;;;;;;15.63;6.10;;;;;;;;;;5048991;28;20117;-67
2023/08/24 00:39:18;;;;;;;10.65;6.50;;;;;;;;;;5049843;28;20390;-67
2023/08/24 00:41:45;;;;;;;10.35;6.00;;;;;;;;;;5051204;28;20037;-67
2023/08/24 00:44:12;;;;;;;11.35;5.85;;;;;;;;;;5050908;28;20115;-68
2023/08/24 00:46:37;;;;;;;9.60;5.57;;;;;;;;;;5017433;28;20037;-67
2023/08/24 00:49:03;;;;;;;13.10;5.97;;;;;;;;;;5050569;28;20577;-67
2023/08/24 00:51:29;;;;;;;10.95;6.07;;;;;;;;;;5050860;28;20043;-67
2023/08/24 00:53:54;;;;;;;11.38;6.07;;;;;;;;;;5050406;28;20025;-67
2023/08/24 00:56:24;;;;;;;9.13;6.75;;;;;;;;;;5017759;28;20479;-66
2023/08/24 00:58:50;;;;;;;14.38;6.22;;;;;;;;;;5051733;28;20033;-66
2023/08/24 01:01:19;;;;;;;11.25;6.78;;;;;;;;;;5033879;28;20455;-68
2023/08/24 01:03:46;;;;;;;11.50;5.80;;;;;;;;;;5051733;28;20467;-67
2023/08/24 01:06:12;;;;;;;9.95;5.45;;;;;;;;;;5054143;28;20125;-67
2023/08/24 01:08:37;;;;;;;9.88;6.20;;;;;;;;;;5054056;28;20090;-67
2023/08/24 01:11:03;;;;;;;8.55;6.38;;;;;;;;;;5055093;28;20098;-67
2023/08/24 01:13:41;;;;;;;8.40;5.95;;;;;;;;;;5054227;28;20051;-67
2023/08/24 01:16:13;;;;;;;10.27;6.68;;;;;;;;;;5038211;28;20128;-68
2023/08/24 01:18:39;;;;;;;7.82;6.22;;;;;;;;;;5053963;28;20471;-67
2023/08/24 01:21:05;;;;;;;8.93;6.63;;;;;;;;;;5054954;28;20494;-67
2023/08/24 01:23:53;;;;;;;10.32;6.20;;;;;;;;;;5054495;28;20116;-67
2023/08/24 01:26:20;;;;;;;9.30;6.35;;;;;;;;;;5037306;28;20037;-67
2023/08/24 01:28:46;;;;;;;9.95;6.30;;;;;;;;;;5054157;28;20037;-67
2023/08/24 01:31:18;;;;;;;12.85;7.15;;;;;;;;;;5053852;28;20364;-67
2023/08/24 01:33:45;;;;;;;10.30;6.40;;;;;;;;;;5055197;28;20037;-67
2023/08/24 01:36:12;;;;;;;11.95;7.22;;;;;;;;;;5053696;28;20094;-67
2023/08/24 01:38:38;;;;;;;9.50;6.35;;;;;;;;;;5053550;28;20044;-67
2023/08/24 01:41:20;;;;;;;10.48;6.55;;;;;;;;;;5037577;28;20502;-67
2023/08/24 01:43:53;;;;;;;10.88;7.32;;;;;;;;;;5054449;28;20533;-67
2023/08/24 01:46:19;;;;;;;11.45;6.30;;;;;;;;;;5054451;28;20044;-67
2023/08/24 01:48:45;;;;;;;14.45;6.68;;;;;;;;;;5054524;28;20091;-66
2023/08/24 01:51:12;;;;;;;10.73;7.18;;;;;;;;;;5053414;28;20045;-67
2023/08/24 01:53:38;;;;;;;11.90;7.10;;;;;;;;;;5053646;28;20494;-67
2023/08/24 01:56:08;;;;;;;11.82;7.60;;;;;;;;;;5053640;28;20037;-67
2023/08/24 01:58:34;;;;;;;11.63;7.07;;;;;;;;;;5036677;28;20123;-67
2023/08/24 02:00:59;;;;;;;9.85;7.15;;;;;;;;;;5053222;28;20366;-67
2023/08/24 02:03:25;;;;;;;10.40;6.90;;;;;;;;;;5036653;28;20131;-67
2023/08/24 02:05:51;;;;;;;9.85;6.82;;;;;;;;;;5053282;28;20029;-67
2023/08/24 02:08:17;;;;;;;12.70;7.85;;;;;;;;;;5052816;28;20519;-66
2023/08/24 02:10:42;;;;;;;18.33;9.10;;;;;;;;;;5053754;28;20033;-67
2023/08/24 02:13:08;;;;;;;15.50;8.25;;;;;;;;;;5054292;28;20041;-67
2023/08/24 02:15:33;;;;;;;13.82;8.18;;;;;;;;;;5055625;28;20065;-70
2023/08/24 02:18:00;;;;;;;13.45;8.18;;;;;;;;;;5053051;28;20085;-66
2023/08/24 02:20:26;;;;;;;10.98;8.15;;;;;;;;;;5052856;28;20049;-67
2023/08/24 02:22:51;;;;;;;13.20;7.20;;;;;;;;;;5053934;28;20448;-67
2023/08/24 02:25:17;;;;;;;18.92;7.05;;;;;;;;;;5036492;28;20041;-67
2023/08/24 02:27:43;;;;;;;12.93;6.88;;;;;;;;;;5036237;28;20033;-66
2023/08/24 02:30:09;;;;;;;12.32;8.07;;;;;;;;;;5054015;28;20098;-67
2023/08/24 02:32:35;;;;;;;11.60;7.65;;;;;;;;;;5036404;28;20041;-67
2023/08/24 02:35:01;;;;;;;12.00;7.60;;;;;;;;;;5052837;28;20186;-67
2023/08/24 02:37:30;;;;;;;10.68;8.13;;;;;;;;;;5036796;28;20060;-67
2023/08/24 02:39:56;;;;;;;11.75;7.75;;;;;;;;;;5053753;28;20091;-67
2023/08/24 02:42:21;;;;;;;11.52;7.78;;;;;;;;;;5052348;28;20072;-67
2023/08/24 02:44:47;;;;;;;14.77;7.93;;;;;;;;;;5052843;28;20051;-68
2023/08/24 02:47:13;;;;;;;11.73;7.90;;;;;;;;;;5035925;28;20467;-66
2023/08/24 02:49:38;;;;;;;11.48;8.30;;;;;;;;;;5036329;28;20044;-69
2023/08/24 02:52:04;;;;;;;10.80;7.55;;;;;;;;;;5052339;28;20063;-67
2023/08/24 02:54:30;;;;;;;11.85;7.22;;;;;;;;;;5035821;28;20032;-68
2023/08/24 02:56:56;;;;;;;13.82;7.70;;;;;;;;;;5035693;28;20441;-67
2023/08/24 02:59:22;;;;;;;10.07;7.15;;;;;;;;;;5052911;28;20131;-67
2023/08/24 03:01:48;;;;;;;8.57;7.20;;;;;;;;;;5018995;28;20062;-67
2023/08/24 03:04:14;;;;;;;10.73;6.53;;;;;;;;;;5035363;28;20041;-67
2023/08/24 03:06:40;;;;;;;10.27;7.38;;;;;;;;;;5035641;28;20095;-66
2023/08/24 03:09:05;;;;;;;9.68;7.45;;;;;;;;;;5052246;28;20119;-67
2023/08/24 03:11:31;;;;;;;14.70;7.38;;;;;;;;;;5053386;28;20036;-66
2023/08/24 03:13:57;;;;;;;12.18;7.53;;;;;;;;;;5052405;28;20532;-66
2023/08/24 03:16:23;;;;;;;12.45;7.60;;;;;;;;;;5053664;28;20098;-66
2023/08/24 03:18:49;;;;;;;10.57;6.53;;;;;;;;;;5053578;28;20041;-66
2023/08/24 03:21:16;;;;;;;8.13;6.65;;;;;;;;;;5035635;28;20029;-67
2023/08/24 03:23:42;;;;;;;8.15;6.72;;;;;;;;;;5035304;28;20033;-67
2023/08/24 03:26:07;;;;;;;9.82;7.18;;;;;;;;;;5035237;28;20048;-67
2023/08/24 03:28:33;;;;;;;10.40;6.85;;;;;;;;;;5050759;28;20094;-67
2023/08/24 03:31:00;;;;;;;12.63;6.95;;;;;;;;;;5051942;28;20375;-67
2023/08/24 03:33:27;;;;;;;10.27;6.97;;;;;;;;;;5035001;28;20055;-67
2023/08/24 03:35:54;;;;;;;11.30;6.65;;;;;;;;;;5051389;28;20041;-67
2023/08/24 03:38:20;;;;;;;11.55;6.82;;;;;;;;;;5034841;28;20047;-67
2023/08/24 03:40:45;;;;;;;15.55;7.20;;;;;;;;;;5035299;28;20055;-67
2023/08/24 03:43:11;;;;;;;8.85;6.35;;;;;;;;;;5051939;28;20053;-67
2023/08/24 03:45:37;;;;;;;9.20;6.78;;;;;;;;;;5051487;28;20033;-67
2023/08/24 03:48:04;;;;;;;15.88;7.85;;;;;;;;;;5051452;28;20041;-67
2023/08/24 03:50:29;;;;;;;13.00;7.07;;;;;;;;;;5051578;28;20429;-67
2023/08/24 03:52:55;;;;;;;9.48;6.80;;;;;;;;;;5034946;28;20048;-67
2023/08/24 03:55:21;;;;;;;14.15;7.00;;;;;;;;;;5034512;28;20025;-67
2023/08/24 03:57:47;;;;;;;9.20;7.03;;;;;;;;;;5051454;28;20041;-67
2023/08/24 04:00:14;;;;;;;10.88;6.82;;;;;;;;;;5051872;28;20445;-68
2023/08/24 04:02:41;;;;;;;14.48;7.18;;;;;;;;;;5052418;28;20133;-67
2023/08/24 04:05:09;;;;;;;10.05;6.45;;;;;;;;;;5035700;28;20029;-67
2023/08/24 04:07:40;;;;;;;9.65;6.22;;;;;;;;;;5051957;28;20049;-67
2023/08/24 04:10:06;;;;;;;13.18;7.28;;;;;;;;;;5036097;28;20029;-67
2023/08/24 04:12:32;;;;;;;10.13;7.13;;;;;;;;;;5052699;28;20106;-67
2023/08/24 04:14:58;;;;;;;11.60;7.55;;;;;;;;;;5035125;28;20028;-67
2023/08/24 04:17:25;;;;;;;11.52;7.18;;;;;;;;;;5019216;28;20052;-67
2023/08/24 04:19:52;;;;;;;12.82;6.60;;;;;;;;;;5033781;28;20044;-67
2023/08/24 04:22:19;;;;;;;10.27;7.72;;;;;;;;;;5050542;28;20045;-68
2023/08/24 04:24:44;;;;;;;11.18;7.07;;;;;;;;;;5034607;28;20082;-67
2023/08/24 04:27:10;;;;;;;15.25;7.88;;;;;;;;;;5051017;28;20143;-67
2023/08/24 04:29:36;;;;;;;12.07;7.55;;;;;;;;;;5051685;28;20048;-67
2023/08/24 04:32:03;;;;;;;16.65;7.53;;;;;;;;;;5051023;28;20037;-67
2023/08/24 04:34:28;;;;;;;18.77;8.55;;;;;;;;;;5051075;28;20112;-67
2023/08/24 04:36:54;;;;;;;12.15;8.10;;;;;;;;;;5052242;28;20067;-66
2023/08/24 04:39:20;;;;;;;13.48;8.07;;;;;;;;;;5054734;28;20056;-66
2023/08/24 04:41:45;;;;;;;17.23;9.52;;;;;;;;;;5057632;28;20037;-68
2023/08/24 04:44:11;;;;;;;11.32;7.60;;;;;;;;;;5057938;28;20047;-68
2023/08/24 04:46:37;;;;;;;15.13;7.72;;;;;;;;;;5037794;28;20069;-67
2023/08/24 04:49:03;;;;;;;14.18;7.18;;;;;;;;;;5037663;28;20040;-68
2023/08/24 04:51:29;;;;;;;14.40;7.50;;;;;;;;;;5037645;28;20068;-67
2023/08/24 04:53:55;;;;;;;14.18;7.63;;;;;;;;;;5055742;28;20068;-66
2023/08/24 04:56:21;;;;;;;12.30;7.57;;;;;;;;;;5054296;28;20080;-67
2023/08/24 04:58:54;;;;;;;12.80;7.65;;;;;;;;;;5055991;28;20032;-67
2023/08/24 05:01:20;;;;;;;14.40;8.40;;;;;;;;;;5039702;28;20131;-68
2023/08/24 05:03:45;;;;;;;21.23;8.88;;;;;;;;;;5039003;28;20124;-65
2023/08/24 05:06:11;;;;;;;15.40;8.80;;;;;;;;;;5055637;28;20048;-66
2023/08/24 05:08:37;;;;;;;14.13;8.93;;;;;;;;;;5021376;28;20131;-66
2023/08/24 05:11:10;;;;;;;16.00;9.68;;;;;;;;;;5054366;28;20040;-66
2023/08/24 05:13:36;;;;;;;13.50;9.27;;;;;;;;;;5036091;28;20033;-66
2023/08/24 05:16:02;;;;;;;17.00;9.10;;;;;;;;;;5053418;28;20078;-65
2023/08/24 05:18:28;;;;;;;17.75;9.25;;;;;;;;;;5052969;28;20086;-66
2023/08/24 05:20:53;;;;;;;14.88;8.15;;;;;;;;;;5036462;28;20053;-65
2023/08/24 05:23:19;;;;;;;17.52;8.90;;;;;;;;;;5019920;28;20025;-66
2023/08/24 05:25:45;;;;;;;16.77;9.57;;;;;;;;;;5036819;28;20095;-66
2023/08/24 05:28:11;;;;;;;11.70;8.95;;;;;;;;;;5020332;28;20037;-66
2023/08/24 05:30:37;;;;;;;14.82;8.68;;;;;;;;;;5052768;28;20095;-66
2023/08/24 05:33:03;;;;;;;19.88;10.98;;;;;;;;;;5052177;28;20028;-66
2023/08/24 05:35:29;;;;;;;14.18;9.23;;;;;;;;;;5033363;28;20391;-66
2023/08/24 05:37:55;;;;;;;15.10;8.35;;;;;;;;;;5015677;28;20071;-66
2023/08/24 05:40:20;;;;;;;14.52;7.78;;;;;;;;;;5001902;28;20073;-66
2023/08/24 05:42:46;;;;;;;12.70;7.63;;;;;;;;;;5048435;28;20211;-69
2023/08/24 05:45:12;;;;;;;14.55;7.20;;;;;;;;;;5048838;28;20056;-67
2023/08/24 05:47:38;;;;;;;11.02;6.95;;;;;;;;;;5051875;28;20037;-65
2023/08/24 05:50:04;;;;;;;14.80;6.85;;;;;;;;;;5052419;28;20033;-66
2023/08/24 05:52:31;;;;;;;13.93;7.53;;;;;;;;;;5050513;28;20032;-67
2023/08/24 05:54:59;;;;;;;12.00;6.53;;;;;;;;;;5052410;28;20124;-66
2023/08/24 05:57:25;;;;;;;14.38;7.00;;;;;;;;;;5052975;28;20557;-67
2023/08/24 05:59:51;;;;;;;12.68;6.07;;;;;;;;;;5033838;28;20055;-68
2023/08/24 06:02:17;;;;;;;12.07;6.80;;;;;;;;;;5053205;28;20064;-66
2023/08/24 06:04:43;;;;;;;10.57;6.90;;;;;;;;;;5051549;28;20140;-66
2023/08/24 06:07:09;;;;;;;11.18;6.57;;;;;;;;;;5023897;28;20071;-67
2023/08/24 06:09:34;;;;;;;11.15;6.40;;;;;;;;;;5042953;28;20031;-67
2023/08/24 06:12:00;;;;;;;8.65;6.40;;;;;;;;;;5042459;28;20037;-67
2023/08/24 06:14:26;;;;;;;11.10;6.85;;;;;;;;;;5024261;28;20037;-67
2023/08/24 06:16:53;;;;;;;9.38;6.13;;;;;;;;;;5042880;28;20037;-67
2023/08/24 06:19:18;;;;;;;10.32;6.30;;;;;;;;;;5042689;28;20037;-66
2023/08/24 06:21:44;;;;;;;9.60;6.45;;;;;;;;;;5012728;28;20040;-67
2023/08/24 06:24:10;;;;;;;9.75;6.65;;;;;;;;;;5042969;28;20029;-67
2023/08/24 06:26:35;;;;;;;8.23;5.43;;;;;;;;;;5041077;28;20033;-66
2023/08/24 06:29:01;;;;;;;10.10;5.55;;;;;;;;;;5041154;28;20028;-67
2023/08/24 06:31:27;;;;;;;8.07;5.53;;;;;;;;;;5043186;28;20025;-67
2023/08/24 06:33:53;;;;;;;10.45;5.80;;;;;;;;;;5041693;28;20033;-69
2023/08/24 06:36:19;;;;;;;9.00;5.80;;;;;;;;;;5013060;28;20037;-66
2023/08/24 06:38:45;;;;;;;7.57;5.28;;;;;;;;;;5044913;28;20033;-67
2023/08/24 06:41:12;;;;;;;12.05;5.43;;;;;;;;;;5024220;28;20087;-67
2023/08/24 06:43:39;;;;;;;10.38;5.57;;;;;;;;;;5039975;28;20490;-67
2023/08/24 06:46:07;;;;;;;8.55;5.28;;;;;;;;;;5039803;28;20151;-67
2023/08/24 06:48:41;;;;;;;6.43;5.75;;;;;;;;;;5042215;28;20036;-67
2023/08/24 06:51:07;;;;;;;7.32;5.63;;;;;;;;;;5033038;28;20090;-67
2023/08/24 06:53:33;;;;;;;7.93;5.15;;;;;;;;;;5040739;28;20037;-67
2023/08/24 06:55:59;;;;;;;6.38;4.85;;;;;;;;;;5042442;28;20036;-65
2023/08/24 06:58:25;;;;;;;7.57;5.32;;;;;;;;;;5042340;28;20112;-66
2023/08/24 07:00:50;;;;;;;6.05;5.22;;;;;;;;;;5021915;28;20439;-66
2023/08/24 07:03:17;;;;;;;7.35;5.05;;;;;;;;;;5041079;28;20045;-66
2023/08/24 07:05:43;;;;;;;7.13;5.43;;;;;;;;;;5039173;28;20485;-66
2023/08/24 07:08:09;;;;;;;9.23;5.43;;;;;;;;;;5038888;28;20037;-66
2023/08/24 07:10:34;;;;;;;10.02;5.05;;;;;;;;;;5038063;28;20021;-65
2023/08/24 07:13:00;;;;;;;8.93;5.57;;;;;;;;;;5024001;28;20034;-66
2023/08/24 07:15:26;;;;;;;7.50;5.50;;;;;;;;;;5040118;28;20038;-65
2023/08/24 07:17:52;;;;;;;15.13;6.28;;;;;;;;;;5040130;28;20060;-66
2023/08/24 07:20:19;;;;;;;9.50;6.15;;;;;;;;;;5007081;28;20088;-66
2023/08/24 07:22:45;;;;;;;7.60;5.20;;;;;;;;;;5038905;28;20498;-66
2023/08/24 07:25:18;;;;;;;8.77;5.80;;;;;;;;;;5030842;28;20041;-65
2023/08/24 07:27:44;;;;;;;10.60;5.72;;;;;;;;;;5031714;28;20055;-66
2023/08/24 07:30:11;;;;;;;8.70;5.85;;;;;;;;;;5043051;28;20030;-65
2023/08/24 07:32:38;;;;;;;9.82;5.75;;;;;;;;;;5040229;28;20071;-65
2023/08/24 07:35:06;;;;;;;7.32;5.97;;;;;;;;;;5001042;28;20038;-65
2023/08/24 07:37:31;;;;;;;8.43;6.15;;;;;;;;;;5035209;28;20037;-66
2023/08/24 07:39:57;;;;;;;10.50;6.50;;;;;;;;;;5037105;28;20053;-66
2023/08/24 07:42:23;;;;;;;9.32;6.60;;;;;;;;;;5045196;28;20071;-66
2023/08/24 07:44:49;;;;;;;7.85;6.70;;;;;;;;;;5050430;28;20029;-66
2023/08/24 07:47:15;;;;;;;9.75;6.93;;;;;;;;;;5035861;28;20041;-67
2023/08/24 07:49:44;;;;;;;13.73;7.13;;;;;;;;;;5030109;28;20820;-66
2023/08/24 07:52:12;;;;;;;9.80;6.60;;;;;;;;;;4997173;28;20141;-65
2023/08/24 07:54:38;;;;;;;9.05;6.53;;;;;;;;;;5029925;28;20038;-66
2023/08/24 07:57:07;;;;;;;9.13;6.75;;;;;;;;;;5031173;28;20041;-66
2023/08/24 07:59:33;;;;;;;12.88;7.05;;;;;;;;;;5035321;28;20041;-66
2023/08/24 08:01:59;;;;;;;16.60;7.13;;;;;;;;;;5031614;28;20049;-65
2023/08/24 08:04:25;;;;;;;13.60;7.57;;;;;;;;;;5030843;28;20135;-65
2023/08/24 08:06:51;;;;;;;14.02;9.00;;;;;;;;;;5029958;28;20621;-65
2023/08/24 08:09:17;;;;;;;11.52;7.30;;;;;;;;;;5044564;28;20052;-65
2023/08/24 08:11:44;;;;;;;19.40;8.13;;;;;;;;;;5032492;28;20364;-65
2023/08/24 08:14:09;;;;;;;11.98;9.95;;;;;;;;;;5050333;28;20048;-67
2023/08/24 08:16:36;;;;;;;17.77;9.40;;;;;;;;;;5050840;28;20041;-65
2023/08/24 08:19:02;;;;;;;11.68;8.25;;;;;;;;;;5049766;28;20029;-65
2023/08/24 08:21:29;;;;;;;12.80;8.80;;;;;;;;;;5049117;28;20124;-66
2023/08/24 08:23:54;;;;;;;13.93;7.68;;;;;;;;;;5049829;28;20036;-65
2023/08/24 08:26:20;;;;;;;11.77;6.75;;;;;;;;;;5050576;28;20388;-65
2023/08/24 08:28:46;;;;;;;10.13;6.55;;;;;;;;;;5038666;28;20083;-65
2023/08/24 08:31:13;;;;;;;10.10;6.55;;;;;;;;;;5039143;28;20043;-66
2023/08/24 08:33:39;;;;;;;10.02;6.82;;;;;;;;;;5024378;28;20068;-65
2023/08/24 08:36:05;;;;;;;16.17;6.78;;;;;;;;;;5036553;28;20056;-66
2023/08/24 08:38:32;;;;;;;10.80;6.72;;;;;;;;;;5041982;28;20041;-65
2023/08/24 08:41:02;;;;;;;9.43;6.78;;;;;;;;;;5033310;28;20049;-66
2023/08/24 08:43:33;;;;;;;8.85;6.20;;;;;;;;;;5049391;28;20060;-65
2023/08/24 08:46:00;;;;;;;14.48;6.90;;;;;;;;;;5049636;28;20041;-66
2023/08/24 08:48:25;;;;;;;9.45;5.25;;;;;;;;;;5014445;28;20442;-65
2023/08/24 08:50:53;;;;;;;8.38;6.40;;;;;;;;;;5039433;28;20036;-65
2023/08/24 08:53:21;;;;;;;8.55;5.65;;;;;;;;;;5038746;28;20037;-67
2023/08/24 08:55:48;;;;;;;8.80;5.72;;;;;;;;;;5030609;28;20029;-66
2023/08/24 08:58:15;;;;;;;9.32;5.97;;;;;;;;;;5010468;28;20122;-67
2023/08/24 09:00:41;;;;;;;7.35;5.22;;;;;;;;;;5029258;28;20041;-66
2023/08/24 09:03:08;;;;;;;6.90;5.03;;;;;;;;;;5040233;28;20051;-66
2023/08/24 09:05:36;;;;;;;6.25;4.20;;;;;;;;;;5040181;28;20039;-66
2023/08/24 09:08:03;;;;;;;7.15;4.80;;;;;;;;;;5038569;28;20041;-67
2023/08/24 09:10:28;;;;;;;9.73;5.30;;;;;;;;;;5039535;28;20487;-65
2023/08/24 09:12:54;;;;;;;10.25;4.95;;;;;;;;;;5039251;28;20439;-66
2023/08/24 09:15:26;;;;;;;7.78;4.68;;;;;;;;;;5037813;28;20038;-66
2023/08/24 09:17:51;;;;;;;6.40;4.80;;;;;;;;;;5039193;28;20115;-66
2023/08/24 09:20:17;;;;;;;7.47;4.50;;;;;;;;;;5039503;28;20044;-68
2023/08/24 09:22:44;;;;;;;5.38;4.18;;;;;;;;;;5037000;28;20360;-65
2023/08/24 09:25:10;;;;;;;7.25;4.05;;;;;;;;;;5040631;28;20049;-66
2023/08/24 09:27:35;;;;;;;7.13;4.82;;;;;;;;;;5025553;28;20073;-65
2023/08/24 09:30:02;;;;;;;5.82;4.20;;;;;;;;;;5044259;28;20048;-66
2023/08/24 09:32:33;;;;;;;6.80;4.03;;;;;;;;;;5019977;28;20110;-66
2023/08/24 09:35:20;;;;;;;5.90;4.03;;;;;;;;;;5036129;28;20044;-67
2023/08/24 09:37:49;;;;;;;4.95;4.35;;;;;;;;;;5051299;28;20099;-66
2023/08/24 09:40:15;;;;;;;6.00;4.03;;;;;;;;;;5051457;28;20084;-66
2023/08/24 09:42:41;;;;;;;5.65;4.10;;;;;;;;;;5034722;28;20095;-66
2023/08/24 09:45:11;;;;;;;6.35;4.30;;;;;;;;;;5034370;28;20060;-66
2023/08/24 09:47:37;;;;;;;6.95;4.22;;;;;;;;;;5050961;28;20033;-65
2023/08/24 09:50:03;;;;;;;6.07;3.88;;;;;;;;;;5034683;28;20060;-65
2023/08/24 09:52:33;;;;;;;6.10;4.07;;;;;;;;;;5034618;28;20033;-66
2023/08/24 09:55:04;;;;;;;8.38;4.20;;;;;;;;;;5050859;28;20102;-65
2023/08/24 09:57:33;;;;;;;7.65;4.10;;;;;;;;;;5051130;28;20045;-66
2023/08/24 10:00:10;;;;;;;5.50;3.80;;;;;;;;;;5051227;28;20149;-65
2023/08/24 10:02:43;;;;;;;9.77;4.45;;;;;;;;;;5051096;28;20040;-67
2023/08/24 10:05:11;;;;;;;6.00;4.53;;;;;;;;;;5051197;28;20111;-65
2023/08/24 10:07:38;;;;;;;4.97;4.03;;;;;;;;;;5050900;28;20124;-66
2023/08/24 10:10:08;;;;;;;5.05;4.13;;;;;;;;;;5050969;28;20542;-66
2023/08/24 10:12:37;;;;;;;6.57;4.43;;;;;;;;;;5050069;28;20504;-65
2023/08/24 10:15:06;;;;;;;11.43;5.07;;;;;;;;;;5040189;28;20125;-65
2023/08/24 10:17:33;;;;;;;5.70;4.47;;;;;;;;;;5052015;28;20182;-65
2023/08/24 10:20:08;;;;;;;5.07;4.20;;;;;;;;;;5025613;28;20037;-66
2023/08/24 10:22:36;;;;;;;5.90;4.40;;;;;;;;;;5040294;28;20101;-66
2023/08/24 10:25:02;;;;;;;4.55;4.15;;;;;;;;;;5048191;28;20052;-66
2023/08/24 10:27:31;;;;;;;6.45;4.50;;;;;;;;;;5051542;28;20045;-68
2023/08/24 10:29:58;;;;;;;7.72;4.75;;;;;;;;;;5047479;28;20040;-66
2023/08/24 10:32:25;;;;;;;9.40;4.65;;;;;;;;;;5053656;28;20047;-67
2023/08/24 10:34:51;;;;;;;9.55;5.80;;;;;;;;;;5052358;28;20040;-67
2023/08/24 10:37:24;;;;;;;9.48;5.55;;;;;;;;;;5034318;28;20111;-67
2023/08/24 10:39:50;;;;;;;8.43;4.93;;;;;;;;;;5051324;28;20462;-70
2023/08/24 10:42:16;;;;;;;11.75;6.00;;;;;;;;;;5032916;28;20045;-68
2023/08/24 10:44:46;;;;;;;6.85;5.35;;;;;;;;;;5032564;28;20495;-66
2023/08/24 10:47:13;;;;;;;8.70;5.10;;;;;;;;;;5030968;28;20056;-66
2023/08/24 10:49:39;;;;;;;12.45;4.90;;;;;;;;;;5039024;28;20272;-65
2023/08/24 10:52:19;;;;;;;8.75;4.57;;;;;;;;;;5038178;28;20049;-66
2023/08/24 10:54:45;;;;;;;10.00;4.22;;;;;;;;;;5040745;28;20072;-66
2023/08/24 10:57:19;;;;;;;4.60;3.97;;;;;;;;;;5034092;28;20053;-66
2023/08/24 10:59:45;;;;;;;6.05;4.45;;;;;;;;;;5013792;28;20049;-66
2023/08/24 11:02:18;;;;;;;5.97;4.32;;;;;;;;;;5028527;28;20846;-68
2023/08/24 11:05:03;;;;;;;8.85;5.32;;;;;;;;;;4996165;28;20130;-66
2023/08/24 11:07:29;;;;;;;9.20;5.03;;;;;;;;;;5029947;28;20136;-65
2023/08/24 11:09:55;;;;;;;8.75;4.40;;;;;;;;;;5013526;28;20455;-66
2023/08/24 11:12:21;;;;;;;8.63;4.20;;;;;;;;;;5029374;28;20037;-67
2023/08/24 11:15:01;;;;;;;9.30;4.55;;;;;;;;;;5030658;28;20357;-68
2023/08/24 11:17:33;;;;;;;9.18;4.40;;;;;;;;;;5030887;28;20037;-68
2023/08/24 11:19:59;;;;;;;6.75;4.30;;;;;;;;;;5030014;28;20395;-67
2023/08/24 11:22:25;;;;;;;5.68;4.20;;;;;;;;;;5014239;28;20037;-67
2023/08/24 11:24:51;;;;;;;7.22;4.60;;;;;;;;;;5031554;28;20468;-66
2023/08/24 11:27:20;;;;;;;7.32;4.93;;;;;;;;;;5013921;28;20045;-67
2023/08/24 11:29:45;;;;;;;8.75;4.80;;;;;;;;;;5030870;28;20510;-66
2023/08/24 11:32:12;;;;;;;11.50;4.82;;;;;;;;;;4998047;28;20123;-66
2023/08/24 11:34:38;;;;;;;7.97;5.28;;;;;;;;;;5013633;28;20080;-67
2023/08/24 11:37:04;;;;;;;12.95;5.05;;;;;;;;;;5027451;28;20383;-68
2023/08/24 11:39:32;;;;;;;12.27;5.22;;;;;;;;;;5051023;28;20041;-67
2023/08/24 11:42:00;;;;;;;8.60;5.07;;;;;;;;;;5012718;28;20480;-68
2023/08/24 11:44:26;;;;;;;5.65;4.90;;;;;;;;;;5031555;28;20045;-69
2023/08/24 11:46:52;;;;;;;11.82;4.55;;;;;;;;;;4997720;28;20094;-68
2023/08/24 11:49:17;;;;;;;8.93;4.78;;;;;;;;;;5012015;28;20072;-70
2023/08/24 11:51:44;;;;;;;6.20;4.32;;;;;;;;;;4996418;28;20045;-69
2023/08/24 11:54:11;;;;;;;10.02;4.40;;;;;;;;;;5012644;28;20037;-67
2023/08/24 11:56:41;;;;;;;5.88;4.32;;;;;;;;;;4979916;28;20385;-69
2023/08/24 11:59:10;;;;;;;6.15;4.78;;;;;;;;;;5027045;28;20539;-69
2023/08/24 12:01:36;;;;;;;9.50;4.78;;;;;;;;;;4993709;28;20049;-69
2023/08/24 12:04:02;;;;;;;6.82;5.13;;;;;;;;;;5016159;28;20045;-67
2023/08/24 12:06:28;;;;;;;9.75;4.80;;;;;;;;;;5020649;28;20041;-67
2023/08/24 12:08:55;;;;;;;7.57;5.15;;;;;;;;;;4993748;28;20423;-67
2023/08/24 12:11:25;;;;;;;12.82;5.35;;;;;;;;;;4994836;28;20037;-67
2023/08/24 12:13:52;;;;;;;10.35;5.03;;;;;;;;;;5027753;28;20562;-68
2023/08/24 12:16:18;;;;;;;7.93;5.32;;;;;;;;;;5030866;28;20053;-67
2023/08/24 12:19:03;;;;;;;11.98;5.55;;;;;;;;;;5031353;28;20037;-67
2023/08/24 12:21:30;;;;;;;9.80;5.25;;;;;;;;;;5030454;28;20077;-67
2023/08/24 12:24:01;;;;;;;8.25;5.18;;;;;;;;;;5029998;28;20064;-68
2023/08/24 12:26:28;;;;;;;7.90;5.45;;;;;;;;;;5013893;28;20127;-67
2023/08/24 12:28:55;;;;;;;8.73;5.07;;;;;;;;;;5030793;28;20155;-67
2023/08/24 12:31:21;;;;;;;8.77;5.45;;;;;;;;;;5028596;28;20053;-66
2023/08/24 12:33:58;;;;;;;8.23;4.75;;;;;;;;;;5012342;28;20060;-67
2023/08/24 12:36:23;;;;;;;8.75;4.88;;;;;;;;;;4996265;28;20049;-67
2023/08/24 12:38:49;;;;;;;9.18;4.93;;;;;;;;;;5012423;28;20119;-67
2023/08/24 12:41:15;;;;;;;7.97;5.30;;;;;;;;;;5011442;28;20459;-67
2023/08/24 12:43:41;;;;;;;9.70;5.45;;;;;;;;;;5037227;28;20126;-66
2023/08/24 12:46:06;;;;;;;10.85;5.50;;;;;;;;;;5030846;28;20073;-67
2023/08/24 12:48:32;;;;;;;7.90;5.20;;;;;;;;;;4998452;28;20490;-66
2023/08/24 12:50:58;;;;;;;10.05;5.88;;;;;;;;;;5048203;28;20068;-67
2023/08/24 12:53:23;;;;;;;10.00;5.40;;;;;;;;;;5031574;28;20431;-67
2023/08/24 12:55:49;;;;;;;9.77;6.00;;;;;;;;;;5047861;28;20128;-68
2023/08/24 12:58:15;;;;;;;10.77;5.70;;;;;;;;;;5031727;28;20557;-67
2023/08/24 13:00:41;;;;;;;9.70;5.68;;;;;;;;;;5050691;28;20088;-66
2023/08/24 13:03:07;;;;;;;11.13;5.45;;;;;;;;;;5002821;28;20452;-67
2023/08/24 13:05:33;;;;;;;15.02;5.80;;;;;;;;;;5052400;28;20072;-66
2023/08/24 13:07:59;;;;;;;10.40;5.43;;;;;;;;;;5019416;28;20039;-68
2023/08/24 13:10:26;;;;;;;10.80;5.75;;;;;;;;;;5019393;28;20067;-68
2023/08/24 13:12:52;;;;;;;11.88;5.78;;;;;;;;;;5034781;28;20498;-68
2023/08/24 13:15:18;;;;;;;13.15;5.63;;;;;;;;;;5034705;28;20581;-67
2023/08/24 13:17:44;;;;;;;10.25;4.70;;;;;;;;;;5032592;28;20041;-68
2023/08/24 13:20:10;;;;;;;7.75;4.75;;;;;;;;;;5033944;28;20528;-68
2023/08/24 13:22:36;;;;;;;6.72;4.50;;;;;;;;;;5034016;28;20033;-69
2023/08/24 13:25:02;;;;;;;6.78;4.72;;;;;;;;;;5000416;28;20095;-68
2023/08/24 13:27:30;;;;;;;6.80;4.85;;;;;;;;;;5016386;28;20033;-68
2023/08/24 13:30:00;;;;;;;6.32;4.20;;;;;;;;;;5033736;28;20041;-67
2023/08/24 13:32:27;;;;;;;5.10;4.30;;;;;;;;;;5000542;28;20126;-68
2023/08/24 13:34:53;;;;;;;8.05;4.40;;;;;;;;;;5033781;28;20037;-68
2023/08/24 13:37:18;;;;;;;6.95;4.38;;;;;;;;;;5015690;28;20055;-67
2023/08/24 13:39:44;;;;;;;8.90;4.60;;;;;;;;;;5016297;28;20096;-66
2023/08/24 13:42:12;;;;;;;8.27;5.10;;;;;;;;;;5016124;28;20452;-67
2023/08/24 13:44:39;;;;;;;8.77;5.15;;;;;;;;;;5025087;28;20029;-66
2023/08/24 13:47:05;;;;;;;11.05;5.03;;;;;;;;;;5032064;28;20361;-66
2023/08/24 13:49:30;;;;;;;14.15;5.22;;;;;;;;;;5041808;28;20029;-67
2023/08/24 13:51:56;;;;;;;11.48;5.90;;;;;;;;;;5041766;28;20041;-66
2023/08/24 13:54:22;;;;;;;15.35;5.38;;;;;;;;;;5028489;28;20037;-66
2023/08/24 13:56:49;;;;;;;10.95;5.28;;;;;;;;;;5040173;28;20033;-66
2023/08/24 13:59:16;;;;;;;10.38;5.00;;;;;;;;;;5042809;28;20043;-67
2023/08/24 14:01:42;;;;;;;11.23;5.38;;;;;;;;;;5027002;28;20029;-67
2023/08/24 14:04:08;;;;;;;9.70;5.25;;;;;;;;;;5028885;28;20640;-66
2023/08/24 14:06:36;;;;;;;13.10;4.97;;;;;;;;;;5042079;28;20049;-68
2023/08/24 14:09:03;;;;;;;10.13;4.57;;;;;;;;;;5040571;28;20456;-67
2023/08/24 14:11:29;;;;;;;12.15;4.60;;;;;;;;;;5046069;28;20119;-67
2023/08/24 14:13:56;;;;;;;7.90;4.90;;;;;;;;;;5050819;28;20140;-68
2023/08/24 14:16:22;;;;;;;8.48;4.38;;;;;;;;;;5018574;28;20036;-67
2023/08/24 14:18:48;;;;;;;10.25;4.43;;;;;;;;;;5051511;28;20053;-67
2023/08/24 14:21:14;;;;;;;8.70;3.95;;;;;;;;;;5034197;28;20060;-66
2023/08/24 14:23:42;;;;;;;9.38;3.67;;;;;;;;;;5053432;28;20399;-68
2023/08/24 14:26:10;;;;;;;7.10;4.13;;;;;;;;;;5053134;28;20048;-69
2023/08/24 14:28:54;;;;;;;7.18;3.17;;;;;;;;;;5037305;28;20059;-68
2023/08/24 14:31:31;;;;;;;11.85;3.38;;;;;;;;;;5053958;28;20061;-66
2023/08/24 14:33:57;;;;;;;8.65;3.25;;;;;;;;;;5055271;28;20490;-67